Portage, MI (49081)

3:14 AM EST on December 09, 2016 (GMT -0500)
Forest Hills | | Change Station
Active Advisory: Winter Storm Warning

Elev 876 ft 42.17 °N, 85.59 °W | Updated 5 seconds ago

Light Snow
Light Snow Mist
25.0 °F
Feels Like 25 °F
N
3.0
Wind Variable Wind from East

Today
High -- | Low -- °F
--% Chance of Precip.
Yesterday
High -- | Low -- °F
Precip. -- in
Pressure 30.34 in
Visibility 1.5 miles
Clouds Overcast 2000 ft
Windchill 25 °F
Dew Point 23 °F
Humidity 93%
Rainfall 0.00 in
Snow Depth Not available.
7:59 AM 5:10 PM
Waxing Gibbous, 71% visible
METAR KAZO 090753Z AUTO 24010KT 1 1/2SM -SN BR OVC020 M03/M05 A3030 RMK AO2 SLP274 P0001 T10281050
Pressure 30.34 in
Visibility 1.5 miles
Clouds Overcast 2000 ft
Windchill 25 °F
Dew Point 23 °F
Humidity 93%
Rainfall 0.00 in
Snow Depth Not available.
7:59 AM 5:10 PM
Waxing Gibbous, 71% visible
METAR KAZO 090753Z AUTO 24010KT 1 1/2SM -SN BR OVC020 M03/M05 A3030 RMK AO2 SLP274 P0001 T10281050

10-Day Weather Forecast

Almanac

Astronomy

Dec. 09, 2016 Rise Set
Actual Time
Civil Twilight
Nautical Twilight
Astronomical Twilight
Moon
Length of Visible Light
Length of Day
Tomorrow will be .
, % of the Moon is Illuminated

Today's Extremes

State Highs State Lows

Community

WunderPhotos

Upload Photos

1,956,371 photos uploaded!

WunderBlog® & News

Nearby

Air Quality

  Air Quality AQ Index Pollutant
Not available.

Snow Depth

Station Depth Elevation

Earthquake Activity

City Distance Mag. Time & Date
Minimum magnitude displayed is 2.5.

Coastal Water Temperatures

Place Temperature

Stations

Nearby Weather Stations

Station Location Temp. Windchill Dew Point Humidity Wind Precip. Elev Updated Type
                   

Watches & Warnings

Winter Storm Warning
Issued: 8:53 PM EST Dec. 8, 2016 – National Weather Service

... Winter Storm Warning remains in effect until 4 PM EST Friday...

Hazardous weather...

* snow showers will continue tonight and Friday. The heaviest
   snow showers will be between midnight and 10 am Friday.

* Additional snowfall of 3 to 8 inches can be expected. This
   will bring storm totals to as high as 12 inches by Friday
   evening. Locally higher amounts will be possible.

* Gusty west to northwest winds will result in blowing and
   drifting snow through this evening.

* Wind chill readings 10 to 15 above zero.

* Near whiteout conditions are possible as visibilities will be
   changing rapidly.

Impacts...

* roads will become snow covered and slippery.

* Longer commute times.

Precautionary/preparedness actions...

* the Michigan Department of Transportation reminds motorists
   to adjust speeds based on the conditions... and to take it
   slow in ice and snow.

* Weather preparedness information is available online at:
   www.Ready.Gov/winter.